Latest Weather Observations for Paraburdoo

IDW60801

Issued at 9:35 pm WST Tuesday 30 September 2014 (issued every 30 minutes, with the page automatically refreshed every 10 minutes)

About weather observations | Map of weather stations | Latest weather observations for WA | Other Formats
Station Details ID: 007185 Name: PARABURDOO AERO Lat: -23.17 Lon: 117.75 Height: 423.7 m
Data from the previous 72 hours. | See also: Recent months at Paraburdoo
Date/Time
WST
Temp
°C
App
Temp
°C
Dew
Point
Rel
Hum
%
Delta-T
°C
Wind Press
QNH
hPa
Press
MSL
hPa
Rain
since 9 am
mm
Dir
 
Spd
km/h
Gust
km/h
Spd
kts
Gust
kts
30/09:30pm 25.2 23.1 -0.8 18 12.1 WNW 0 0 0 0 1015.5 1013.6 0.0
30/09:00pm 27.2 23.7 -1.7 15 13.4 WNW 7 9 4 5 1015.5 1013.6 0.0
30/08:30pm 28.8 25.0 -0.4 15 14.0 WNW 9 13 5 7 1015.2 1013.3 0.0
30/08:00pm 29.5 25.7 -0.8 14 14.5 NNW 9 11 5 6 1014.9 1013.0 0.0
30/07:30pm 31.0 26.8 -0.6 13 15.3 NNW 11 13 6 7 1014.5 1012.6 0.0
30/07:00pm 32.2 27.3 -0.8 12 16.1 NNW 15 20 8 11 1014.1 1012.2 0.0
30/06:30pm 32.9 27.5 -1.4 11 16.6 NNW 17 22 9 12 1013.6 1011.6 0.0
30/06:00pm 33.8 27.9 -2.0 10 17.3 NNW 19 28 10 15 1013.1 1011.2 0.0
30/05:30pm 34.7 28.9 -1.4 10 17.7 N 19 26 10 14 1012.8 1010.9 0.0
30/05:00pm 35.1 28.0 -1.1 10 17.9 N 26 35 14 19 1012.6 1010.7 0.0
30/04:30pm 35.2 29.5 -1.0 10 18.0 NNW 19 28 10 15 1012.4 1010.5 0.0
30/04:00pm 36.2 30.2 -1.7 9 18.7 NNW 20 28 11 15 1012.4 1010.5 0.0
30/03:30pm 36.3 30.5 -1.6 9 18.7 N 19 39 10 21 1012.3 1010.4 0.0
30/03:00pm 35.8 29.9 -0.5 10 18.2 N 20 35 11 19 1012.3 1010.4 0.0
30/02:30pm 35.8 29.7 -2.0 9 18.5 N 20 30 11 16 1012.6 1010.7 0.0
30/02:00pm 35.1 27.6 -1.1 10 17.9 N 28 46 15 25 1012.9 1011.0 0.0
30/01:57pm 35.7 28.1 -2.0 9 18.5 NNE 28 46 15 25 1012.8 1010.9 0.0
30/01:30pm 34.8 29.8 -1.3 10 17.8 WNW 15 20 8 11 1013.1 1011.2 0.0
30/01:09pm 35.5 28.1 -0.8 10 18.1 N 28 54 15 29 1013.6 1011.6 0.0
30/01:00pm 35.7 28.7 -0.6 10 18.2 N 26 39 14 21 1013.8 1011.8 0.0
30/12:30pm 35.3 31.5 -0.9 10 18.0 NNE 9 19 5 10 1014.4 1012.5 0.0
30/12:00pm 33.8 28.9 -0.7 11 17.0 NE 15 20 8 11 1015.0 1013.1 0.0
30/11:30am 33.7 27.8 -0.8 11 17.0 NNE 20 28 11 15 1015.5 1013.6 0.0
30/11:00am 31.9 26.4 -2.2 11 16.2 E 17 28 9 15 1016.1 1014.1 0.0
30/10:30am 31.8 25.7 -2.3 11 16.2 NE 20 24 11 13 1016.3 1014.4 0.0
30/10:00am 30.4 24.3 -2.2 12 15.3 ENE 20 32 11 17 1016.7 1014.8 0.0
30/09:30am 28.9 22.8 -2.3 13 14.5 E 20 28 11 15 1016.9 1015.0 0.0
30/09:00am 28.4 21.1 -2.6 13 14.2 E 26 35 14 19 1017.2 1015.3 0.0
30/08:30am 27.6 20.7 -2.3 14 13.7 E 24 33 13 18 1017.1 1015.2 0.0
30/08:00am 26.9 20.9 -1.9 15 13.2 E 20 28 11 15 1017.0 1015.1 0.0
30/07:30am 25.3 21.1 -0.7 18 12.1 ENE 11 17 6 9 1017.1 1015.2 0.0
30/07:00am 23.2 19.6 0.9 23 10.5 E 9 13 5 7 1017.0 1015.1 0.0
30/06:55am 23.1 20.2 1.4 24 10.3 ENE 6 13 3 7 1016.9 1015.0 0.0
30/06:30am 18.1 16.2 0.7 31 7.9 CALM 0 0 0 0 1016.7 1014.8 0.0
30/06:00am 15.5 13.5 -0.3 34 6.8 CALM 0 0 0 0 1016.5 1014.6 0.0
30/05:30am 17.4 13.9 1.4 34 7.3 NNE 9 11 5 6 1016.2 1014.3 0.0
30/05:00am 17.4 13.9 1.4 34 7.3 NE 9 13 5 7 1016.2 1014.3 0.0
30/04:30am 18.2 14.4 1.7 33 7.6 NNE 11 13 6 7 1016.1 1014.1 0.0
30/04:00am 17.2 13.9 0.4 32 7.5 NNE 7 9 4 5 1015.8 1013.9 0.0
30/03:30am 17.7 13.3 0.4 31 7.7 NNE 13 13 7 7 1015.8 1013.9 0.0
30/03:00am 18.4 15.2 0.5 30 8.1 NNE 7 11 4 6 1015.6 1013.7 0.0
30/02:30am 19.4 16.4 1.9 31 8.2 NNE 7 11 4 6 1015.6 1013.7 0.0
30/02:00am 20.0 17.9 1.4 29 8.6 NNE 2 7 1 4 1015.7 1013.8 0.0
30/01:30am 18.9 15.6 0.0 28 8.5 ENE 7 9 4 5 1015.8 1013.9 0.0
30/01:00am 18.7 16.4 0.3 29 8.3 SE 2 7 1 4 1015.9 1014.0 0.0
30/12:30am 18.7 16.7 -0.2 28 8.4 CALM 0 6 0 3 1016.4 1014.5 0.0
30/12:00am 20.7 18.8 0.5 26 9.3 CALM 0 0 0 0 1016.5 1014.6 0.0
 
Date/Time
WST
Temp
°C
App
Temp
°C
Dew
Point
Rel
Hum
%
Delta-T
°C
Wind Press
QNH
hPa
Press
MSL
hPa
Rain
since 9 am
mm
Dir
 
Spd
km/h
Gust
km/h
Spd
kts
Gust
kts
29/11:30pm 22.3 20.6 1.9 26 9.7 CALM 0 0 0 0 1016.6 1014.7 0.0
29/11:00pm 21.9 19.0 1.5 26 9.6 ESE 6 11 3 6 1016.8 1014.9 0.0
29/10:30pm 24.6 20.9 2.1 23 11.0 W 11 13 6 7 1016.7 1014.8 0.0
29/10:00pm 24.8 21.0 1.7 22 11.2 W 11 13 6 7 1016.7 1014.8 0.0
29/09:30pm 25.1 20.8 1.3 21 11.5 WNW 13 17 7 9 1016.6 1014.7 0.0
29/09:00pm 25.2 20.9 0.7 20 11.7 W 13 15 7 8 1016.4 1014.5 0.0
29/08:30pm 26.6 23.0 0.4 18 12.6 WSW 9 13 5 7 1016.1 1014.1 0.0
29/08:00pm 28.3 23.5 0.1 16 13.6 WSW 15 20 8 11 1015.8 1013.9 0.0
29/07:30pm 28.7 23.5 0.4 16 13.8 WSW 17 22 9 12 1015.5 1013.6 0.0
29/07:00pm 29.2 24.5 0.8 16 13.9 SW 15 19 8 10 1015.0 1013.1 0.0
29/06:30pm 29.9 24.9 1.4 16 14.2 WSW 17 22 9 12 1014.7 1012.8 0.0
29/06:00pm 30.7 24.7 1.1 15 14.8 WSW 22 32 12 17 1014.4 1012.5 0.0
29/05:30pm 31.5 25.1 0.8 14 15.3 W 24 33 13 18 1013.9 1011.9 0.0
29/05:00pm 32.2 26.8 1.3 14 15.6 W 19 28 10 15 1013.8 1011.8 0.0
29/04:30pm 32.5 27.9 1.6 14 15.7 WSW 15 24 8 13 1013.6 1011.6 0.0
29/04:00pm 32.4 27.3 0.5 13 15.9 W 17 26 9 14 1013.4 1011.5 0.0
29/03:30pm 32.9 28.2 0.9 13 16.1 W 15 20 8 11 1013.4 1011.5 0.0
29/03:00pm 33.0 25.5 0.9 13 16.2 W 30 43 16 23 1013.4 1011.5 0.0
29/02:48pm 33.3 25.2 1.2 13 16.3 NW 33 41 18 22 1013.3 1011.4 0.0
29/02:30pm 33.0 29.6 2.0 14 15.9 NNW 9 22 5 12 1013.4 1011.5 0.0
29/02:00pm 32.9 27.6 1.9 14 15.9 NW 19 33 10 18 1013.9 1011.9 0.0
29/01:30pm 32.5 25.8 1.6 14 15.7 WNW 26 35 14 19 1014.3 1012.4 0.0
29/01:00pm 31.2 27.4 1.5 15 15.0 WSW 11 19 6 10 1014.5 1012.6 0.0
29/12:30pm 31.6 26.1 1.8 15 15.1 NW 20 32 11 17 1014.8 1012.9 0.0
29/12:00pm 31.7 25.5 1.9 15 15.1 NW 24 28 13 15 1015.4 1013.5 0.0
29/11:30am 30.6 27.1 3.6 18 14.0 NNW 11 19 6 10 1016.1 1014.1 0.0
29/11:00am 29.9 26.5 3.8 19 13.5 SW 11 20 6 11 1016.5 1014.6 0.0
29/10:30am 30.0 26.0 3.1 18 13.8 WSW 13 20 7 11 1016.8 1014.9 0.0
29/10:00am 29.3 26.9 5.4 22 12.7 N 7 13 4 7 1016.9 1015.0 0.0
29/09:30am 28.0 25.7 5.6 24 11.9 NE 7 13 4 7 1017.0 1015.1 0.0
29/09:00am 27.1 24.6 4.8 24 11.6 NNE 7 11 4 6 1017.1 1015.2 0.0
29/08:30am 25.7 23.4 4.8 26 10.8 NE 6 9 3 5 1017.1 1015.2 0.0
29/08:00am 24.2 22.2 4.6 28 10.0 E 4 7 2 4 1017.1 1015.2 0.0
29/07:30am 21.9 19.4 4.5 32 8.7 ENE 7 11 4 6 1016.8 1014.9 0.0
29/07:00am 19.5 16.9 4.4 37 7.4 ENE 7 9 4 5 1016.6 1014.7 0.0
29/06:30am 16.2 13.3 2.6 40 6.3 ENE 7 9 4 5 1016.4 1014.5 0.0
29/06:00am 14.7 11.8 2.6 44 5.5 NE 7 9 4 5 1016.3 1014.4 0.0
29/05:30am 14.9 11.9 2.1 42 5.8 NNE 7 11 4 6 1015.9 1014.0 0.0
29/05:00am 15.4 12.4 2.2 41 6.0 NE 7 9 4 5 1015.5 1013.6 0.0
29/04:30am 15.8 12.5 2.6 41 6.1 NE 9 11 5 6 1015.4 1013.5 0.0
29/04:00am 16.0 12.7 2.4 40 6.2 ENE 9 11 5 6 1015.3 1013.4 0.0
29/03:30am 16.5 13.6 2.5 39 6.5 ENE 7 9 4 5 1015.4 1013.5 0.0
29/03:00am 16.3 14.0 2.7 40 6.3 E 4 7 2 4 1015.3 1013.4 0.0
29/02:30am 17.5 14.3 3.0 38 6.8 NNE 9 9 5 5 1015.4 1013.5 0.0
29/02:00am 17.8 16.3 2.9 37 7.0 CALM 0 11 0 6 1015.6 1013.7 0.0
29/01:30am 19.1 17.8 4.1 37 7.3 CALM 0 0 0 0 1015.7 1013.8 0.0
29/01:00am 19.3 18.0 3.9 36 7.5 CALM 0 0 0 0 1015.8 1013.9 0.0
29/12:30am 20.5 19.3 4.5 35 7.9 CALM 0 0 0 0 1016.1 1014.1 0.0
29/12:00am 23.3 21.0 5.7 32 9.1 SW 7 9 4 5 1016.1 1014.1 0.0
 
Date/Time
WST
Temp
°C
App
Temp
°C
Dew
Point
Rel
Hum
%
Delta-T
°C
Wind Press
QNH
hPa
Press
MSL
hPa
Rain
since 9 am
mm
Dir
 
Spd
km/h
Gust
km/h
Spd
kts
Gust
kts
28/11:30pm 23.5 21.2 5.9 32 9.1 WSW 7 11 4 6 1016.3 1014.4 0.0
28/11:00pm 24.4 21.8 6.2 31 9.5 SSW 9 13 5 7 1016.2 1014.3 0.0
28/10:30pm 24.9 21.9 6.1 30 9.9 SW 11 15 6 8 1016.4 1014.5 0.0
28/10:00pm 25.4 22.7 5.6 28 10.3 SW 9 13 5 7 1016.5 1014.6 0.0
28/09:30pm 25.0 22.0 4.2 26 10.6 WSW 9 13 5 7 1016.4 1014.5 0.0
28/09:00pm 25.0 21.9 3.6 25 10.7 W 9 11 5 6 1016.1 1014.1 0.0
28/08:30pm 26.2 22.4 4.1 24 11.3 WSW 13 20 7 11 1015.9 1014.0 0.0
28/08:00pm 26.5 23.0 3.7 23 11.6 W 11 13 6 7 1015.6 1013.7 0.0
28/07:30pm 27.6 23.8 4.0 22 12.1 W 13 17 7 9 1015.4 1013.5 0.0
28/07:00pm 28.4 22.9 4.0 21 12.6 W 22 28 12 15 1015.1 1013.2 0.0
28/06:30pm 28.8 23.9 4.3 21 12.8 W 19 26 10 14 1014.8 1012.9 0.0
28/06:00pm 29.4 24.3 4.1 20 13.2 W 20 28 11 15 1014.7 1012.8 0.0
28/05:30pm 30.1 25.6 4.0 19 13.6 W 17 22 9 12 1014.5 1012.6 0.0
28/05:00pm 30.9 25.0 3.8 18 14.2 WNW 24 44 13 24 1014.3 1012.4 0.0
28/04:30pm 30.6 25.6 4.4 19 13.8 W 20 35 11 19 1014.3 1012.4 0.0
28/04:00pm 30.7 25.5 3.7 18 14.1 WNW 20 33 11 18 1014.4 1012.5 0.0
28/03:30pm 31.2 25.7 4.1 18 14.3 W 22 32 12 17 1014.5 1012.6 0.0
28/03:00pm 31.0 25.1 3.9 18 14.2 W 24 41 13 22 1014.7 1012.8 0.0
28/02:30pm 30.7 25.1 3.7 18 14.1 W 22 44 12 24 1014.9 1013.0 0.0
28/02:00pm 30.3 25.5 4.9 20 13.5 W 19 32 10 17 1015.1 1013.2 0.0
28/01:30pm 30.9 25.5 4.6 19 13.9 W 22 44 12 24 1015.5 1013.6 0.0
28/01:00pm 29.1 24.2 5.2 22 12.6 W 20 33 11 18 1015.9 1014.0 0.0
28/12:30pm 28.9 24.0 5.1 22 12.6 WSW 20 28 11 15 1016.4 1014.5 0.0
28/12:00pm 27.8 23.9 5.4 24 11.8 SW 15 26 8 14 1016.8 1014.9 0.0
28/11:30am 26.5 22.5 4.9 25 11.2 S 15 24 8 13 1017.3 1015.4 0.0
28/11:00am 25.9 23.2 5.5 27 10.6 WSW 9 17 5 9 1017.8 1015.9 0.0
28/10:30am 25.0 22.7 5.7 29 10.1 WSW 7 20 4 11 1018.2 1016.4 0.0
28/10:00am 24.1 21.9 7.7 35 8.8 S 9 17 5 9 1018.7 1016.8 0.0
28/09:30am 23.3 20.8 8.2 38 8.2 SSW 11 17 6 9 1018.9 1017.0 0.0
28/09:00am 22.0 19.9 8.2 41 7.4 SW 9 17 5 9 1019.1 1017.2 0.0
28/08:30am 21.3 18.9 8.6 44 6.8 S 11 17 6 9 1019.1 1017.2 0.0
28/08:00am 21.0 19.6 7.3 41 7.2 W 4 11 2 6 1018.9 1017.0 0.0
28/07:30am 19.6 16.7 6.3 42 6.8 W 11 13 6 7 1018.9 1017.0 0.0
28/07:00am 17.2 15.6 2.4 37 6.8 CALM 0 0 0 0 1018.4 1016.6 0.0
28/06:30am 15.2 13.4 1.4 39 6.2 CALM 0 6 0 3 1018.3 1016.5 0.0
28/06:00am 14.1 11.0 1.4 42 5.6 NE 7 9 4 5 1018.0 1016.1 0.0
28/05:30am 13.7 11.8 0.7 41 5.6 CALM 0 0 0 0 1017.7 1015.8 0.0
28/05:00am 13.6 11.7 0.6 41 5.6 CALM 0 0 0 0 1017.4 1015.5 0.0
28/04:30am 14.4 12.5 0.6 39 6.0 CALM 0 0 0 0 1017.2 1015.3 0.0
28/04:00am 14.4 12.2 1.3 41 5.8 NW 2 6 1 3 1016.9 1015.0 0.0
28/03:30am 15.8 14.2 2.6 41 6.1 CALM 0 0 0 0 1016.6 1014.7 0.0
28/03:00am 16.3 12.9 1.6 37 6.6 N 9 13 5 7 1016.6 1014.7 0.0
28/02:30am 17.5 14.5 2.3 36 7.1 NNW 7 9 4 5 1016.8 1014.9 0.0
28/02:00am 18.4 14.5 3.5 37 7.1 NW 13 15 7 8 1016.9 1015.0 0.0
28/01:30am 18.8 15.7 3.4 36 7.4 NW 9 13 5 7 1016.8 1014.9 0.0
28/01:00am 18.8 16.0 3.0 35 7.5 N 7 9 4 5 1016.7 1014.8 0.0
28/12:30am 20.2 17.7 4.7 36 7.7 W 7 9 4 5 1016.8 1014.9 0.0
28/12:00am 18.1 16.5 2.4 35 7.3 CALM 0 0 0 0 1016.8 1014.9 0.0
 
Date/Time
WST
Temp
°C
App
Temp
°C
Dew
Point
Rel
Hum
%
Delta-T
°C
Wind Press
QNH
hPa
Press
MSL
hPa
Rain
since 9 am
mm
Dir
 
Spd
km/h
Gust
km/h
Spd
kts
Gust
kts
27/11:30pm 19.5 18.2 4.0 36 7.6 CALM 0 0 0 0 1016.8 1014.9 0.0
27/11:00pm 20.4 18.2 3.2 32 8.3 NNW 4 7 2 4 1016.9 1015.0 0.0
27/10:30pm 22.2 19.6 4.3 31 8.9 NW 7 9 4 5 1017.1 1015.2 0.0
27/10:00pm 23.2 20.3 4.7 30 9.4 WNW 9 13 5 7 1017.1 1015.2 0.0

Other Formats:

Comma delimited format used in spreadsheet applications
http://www.bom.gov.au/fwo/IDW60801/IDW60801.94316.axf

JavaScript Object Notation format (JSON) in row-major order
http://www.bom.gov.au/fwo/IDW60801/IDW60801.94316.json